Flight Track Log - Related Links

Times and Time Zones

All times are in EDT time to prevent confusion due to time zone crossing. See the TAP289 flight status page for this flight to view local times or setup timezone preferences in your user account.

Time Position Orientation Groundspeed Altitude Reporting Facility
EDT Latitude Longitude Course Direction KTS MPH feet Rate Location/Type
Tue 07:00:22 PM 38.8170 -9.1170 23° Northeast 157 181 900  Level FlightAware ADS-B
Tue 07:00:47 PM 38.8340 -9.1070 25° Northeast 160 184 1,400 1,200 Climbing FlightAware ADS-B
Tue 07:01:02 PM 38.8460 -9.1010 21° North 163 188 1,700 1,200 Climbing FlightAware ADS-B
Tue 07:01:32 PM 38.8650 -9.0860 32° Northeast 170 196 2,300 1,200 Climbing FlightAware ADS-B
Tue 07:01:42 PM 38.8680 -9.0760 69° East 167 192 2,500 1,200 Climbing FlightAware ADS-B
Tue 07:02:12 PM 38.8600 -9.0490 111° Southeast 163 188 3,100 900 Climbing FlightAware ADS-B
Tue 07:02:42 PM 38.8500 -9.0210 115° Southeast 180 207 3,400 545 Climbing FlightAware ADS-B
Tue 07:03:07 PM 38.8420 -8.9960 112° Southeast 203 234 3,600 545 Climbing FlightAware ADS-B
Tue 07:03:37 PM 38.8290 -8.9590 114° Southeast 235 270 3,900 873 Climbing FlightAware ADS-B
Tue 07:04:02 PM 38.8180 -8.9260 113° Southeast 251 289 4,400 1,745 Climbing FlightAware ADS-B
Tue 07:04:32 PM 38.8020 -8.8840 116° Southeast 263 303 5,500 2,229 Climbing FlightAware ADS-B
Tue 07:05:12 PM 38.7770 -8.8280 120° Southeast 264 304 7,000 1,971 Climbing FlightAware ADS-B
Tue 07:05:42 PM 38.7580 -8.7870 121° Southeast 272 313 7,800 1,906 Climbing FlightAware ADS-B
Tue 07:06:37 PM 38.7230 -8.7080 120° Southeast 275 316 9,700 1,536 Climbing FlightAware ADS-B
Tue 07:07:47 PM 38.6760 -8.6040 120° Southeast 323 372 11,000 1,143 Climbing FlightAware ADS-B
Tue 07:08:22 PM 38.6480 -8.5420 120° Southeast 336 387 11,700 1,482 Climbing FlightAware ADS-B
Tue 07:09:12 PM 38.6080 -8.4540 120° Southeast 350 403 13,100 1,600 Climbing FlightAware ADS-B
Tue 07:10:07 PM 38.5620 -8.3530 120° Southeast 362 417 14,500 1,516 Climbing FlightAware ADS-B
Tue 07:10:47 PM 38.5260 -8.2750 121° Southeast 369 425 15,500 1,694 Climbing FlightAware ADS-B
Tue 07:11:32 PM 38.4890 -8.1940 120° Southeast 367 422 16,900 1,740 Climbing FlightAware ADS-B
Tue 07:12:27 PM 38.4410 -8.0880 120° Southeast 372 428 18,400 1,516 Climbing FlightAware ADS-B
Tue 07:13:07 PM 38.4050 -8.0110 121° Southeast 383 441 19,300 1,341 Climbing FlightAware ADS-B
Tue 07:13:52 PM 38.3630 -7.9200 120° Southeast 391 450 20,300 1,275 Climbing FlightAware ADS-B
Tue 07:14:27 PM 38.3310 -7.8510 121° Southeast 394 453 21,000 1,271 Climbing FlightAware ADS-B
Tue 07:15:17 PM 38.2840 -7.7490 120° Southeast 402 463 22,100 1,200 Climbing FlightAware ADS-B
Tue 07:15:57 PM 38.2460 -7.6660 120° Southeast 412 474 22,800 1,050 Climbing FlightAware ADS-B
Tue 07:16:37 PM 38.2060 -7.5820 121° Southeast 419 482 23,500 1,129 Climbing FlightAware ADS-B
Tue 07:17:22 PM 38.1620 -7.4870 120° Southeast 419 482 24,400 975 Climbing FlightAware ADS-B
Tue 07:17:57 PM 38.1250 -7.4090 121° Southeast 425 489 24,800 1,059 Climbing FlightAware ADS-B
Tue 07:18:47 PM 38.0750 -7.3010 120° Southeast 421 484 25,900 1,088 Climbing FlightAware ADS-B
Tue 07:20:37 PM 37.9990 -7.0550 111° Southeast 424 488 27,700 900 Climbing FlightAware ADS-B
Tue 07:21:47 PM 37.9330 -6.8990 118° Southeast 433 498 28,600 771 Climbing FlightAware ADS-B
Tue 07:22:57 PM 37.8650 -6.7440 119° Southeast 436 502 29,500 774 Climbing FlightAware ADS-B
Tue 07:24:22 PM 37.7820 -6.5540 119° Southeast 436 502 30,600 864 Climbing FlightAware ADS-B
Tue 07:25:02 PM 37.7430 -6.4670 120° Southeast 429 494 31,300 847 Climbing FlightAware ADS-B
Tue 07:25:47 PM 37.6990 -6.3680 119° Southeast 428 493 31,800 565 Climbing FlightAware ADS-B
Tue 07:26:27 PM 37.6610 -6.2810 119° Southeast 429 494 32,100 424 Climbing FlightAware ADS-B
Tue 07:27:12 PM 37.6170 -6.1840 120° Southeast 431 496 32,400 467 Climbing FlightAware ADS-B
Tue 07:27:57 PM 37.5720 -6.0830 119° Southeast 433 498 32,800 565 Climbing FlightAware ADS-B
Tue 07:28:37 PM 37.5340 -5.9970 119° Southeast 432 497 33,200 525 Climbing FlightAware ADS-B
Tue 07:29:17 PM 37.4940 -5.9090 120° Southeast 432 497 33,500 424 Climbing FlightAware ADS-B
Tue 07:30:02 PM 37.4490 -5.8110 120° Southeast 432 497 33,800 494 Climbing FlightAware ADS-B
Tue 07:30:42 PM 37.4100 -5.7230 119° Southeast 431 496 34,200 494 Climbing FlightAware ADS-B
Tue 07:31:27 PM 37.3660 -5.6260 120° Southeast 431 496 34,500 424 Climbing FlightAware ADS-B
Tue 07:32:07 PM 37.3280 -5.5400 119° Southeast 431 496 34,800 375 Climbing FlightAware ADS-B
Tue 07:32:47 PM 37.2870 -5.4500 120° Southeast 432 497 35,000 141 Climbing FlightAware ADS-B
Tue 07:33:32 PM 37.2440 -5.3540 119° Southeast 432 497 35,000  Level FlightAware ADS-B
Tue 07:34:12 PM 37.2030 -5.2640 120° Southeast 431 496 35,000  Level FlightAware ADS-B
Tue 07:34:52 PM 37.1640 -5.1780 120° Southeast 434 499 35,000  Level FlightAware ADS-B
Tue 07:35:37 PM 37.1190 -5.0780 119° Southeast 436 502 35,000  Level FlightAware ADS-B
Tue 07:36:17 PM 37.0780 -4.9890 120° Southeast 438 504 35,000  Level FlightAware ADS-B
Tue 07:37:02 PM 37.0340 -4.8910 119° Southeast 441 507 35,000  Level FlightAware ADS-B
Tue 07:37:42 PM 36.9950 -4.7980 118° Southeast 437 503 35,000  Level FlightAware ADS-B
Tue 07:38:27 PM 36.9530 -4.6970 117° Southeast 439 505 35,000  Level FlightAware ADS-B
Tue 07:39:07 PM 36.9150 -4.6070 118° Southeast 443 510 35,000  Level FlightAware ADS-B
Tue 07:39:47 PM 36.8760 -4.5150 118° Southeast 445 512 35,000  Level FlightAware ADS-B
Tue 07:40:27 PM 36.8370 -4.4240 118° Southeast 448 516 35,000  Level FlightAware ADS-B
Tue 07:41:12 PM 36.7950 -4.3230 117° Southeast 444 511 35,000  Level FlightAware ADS-B
Tue 07:41:57 PM 36.7560 -4.2250 116° Southeast 447 514 35,000  Level FlightAware ADS-B
Tue 07:42:37 PM 36.7160 -4.1260 117° Southeast 444 511 35,000  Level FlightAware ADS-B
Tue 07:43:17 PM 36.6820 -4.0410 116° Southeast 445 512 35,000  Level FlightAware ADS-B
Tue 07:44:02 PM 36.6360 -3.9270 117° Southeast 445 512 35,000  Level FlightAware ADS-B
Tue 07:44:42 PM 36.5990 -3.8350 117° Southeast 446 513 35,000  Level FlightAware ADS-B
Tue 07:45:27 PM 36.5570 -3.7330 117° Southeast 443 510 35,000  Level FlightAware ADS-B
Tue 07:46:07 PM 36.5230 -3.6480 116° Southeast 443 510 35,000  Level FlightAware ADS-B
Tue 07:46:47 PM 36.4820 -3.5490 117° Southeast 445 512 35,000  Level FlightAware ADS-B
Tue 07:47:32 PM 36.4410 -3.4480 117° Southeast 445 512 35,000  Level FlightAware ADS-B
Tue 07:48:12 PM 36.4020 -3.3530 117° Southeast 444 511 35,000  Level FlightAware ADS-B
Tue 07:48:57 PM 36.3600 -3.2500 117° Southeast 444 511 35,000  Level FlightAware ADS-B
Tue 07:49:37 PM 36.3220 -3.1590 117° Southeast 445 512 35,000  Level FlightAware ADS-B
Tue 07:50:17 PM 36.2840 -3.0680 117° Southeast 448 516 35,000  Level FlightAware ADS-B
Tue 07:51:02 PM 36.2410 -2.9640 117° Southeast 453 521 35,000  Level FlightAware ADS-B
Tue 07:51:42 PM 36.2030 -2.8720 117° Southeast 452 520 35,000  Level FlightAware ADS-B
Tue 07:52:22 PM 36.1640 -2.7790 117° Southeast 451 519 35,000  Level FlightAware ADS-B
Tue 07:53:07 PM 36.1210 -2.6770 118° Southeast 451 519 35,000  Level FlightAware ADS-B
Tue 07:53:47 PM 36.0820 -2.5860 118° Southeast 451 519 35,000  Level FlightAware ADS-B
Tue 07:54:27 PM 36.0440 -2.4950 117° Southeast 451 519 35,000  Level FlightAware ADS-B
Tue 07:55:12 PM 36.0000 -2.3930 118° Southeast 450 518 35,000  Level FlightAware ADS-B
Tue 07:55:52 PM 35.9610 -2.2990 117° Southeast 450 518 35,000  Level FlightAware ADS-B
Tue 07:56:32 PM 35.9230 -2.2090 118° Southeast 449 517 35,000  Level FlightAware ADS-B
Tue 07:57:32 PM 35.8750 -2.0940 117° Southeast 448 516 35,000  Level FlightAware ADS-B
Tue 07:58:12 PM 35.8430 -2.0170 117° Southeast 448 516 35,000  Level FlightAware ADS-B
Tue 07:58:52 PM 35.8110 -1.9400 117° Southeast 448 516 35,000  Level FlightAware ADS-B
Tue 07:59:32 PM 35.7790 -1.8620 117° Southeast 448 516 35,000  Level FlightAware ADS-B
Tue 08:00:12 PM 35.7470 -1.7850 117° Southeast 448 516 35,000  Level FlightAware ADS-B
Tue 08:01:02 PM 35.7070 -1.6880 117° Southeast 448 516 35,000  Level FlightAware ADS-B
Tue 08:01:42 PM 35.6750 -1.6110 117° Southeast 448 516 35,000  Level FlightAware ADS-B
Tue 08:02:22 PM 35.6430 -1.5340 117° Southeast 448 516 35,000  Level FlightAware ADS-B
Tue 08:03:02 PM 35.6110 -1.4560 117° Southeast 448 516 35,000  Level FlightAware ADS-B
Tue 08:03:42 PM 35.5790 -1.3790 117° Southeast 448 516 35,000  Level FlightAware ADS-B
Tue 08:04:32 PM 35.5390 -1.2830 117° Southeast 448 516 35,000  Level FlightAware ADS-B
Tue 08:05:12 PM 35.5070 -1.2050 117° Southeast 448 516 35,000  Level FlightAware ADS-B
Tue 08:05:47 PM 35.3710 -0.9920 128° Southeast 450 518 35,000  Level FlightAware ADS-B
Tue 08:06:37 PM 35.3030 -0.8950 131° Southeast 463 533 35,000  Level FlightAware ADS-B
Tue 08:07:17 PM 35.2420 -0.8160 133° Southeast 464 534 35,000  Level FlightAware ADS-B
Tue 08:08:07 PM 35.1700 -0.7230 133° Southeast 468 539 35,000  Level FlightAware ADS-B
Tue 08:09:12 PM 35.0750 -0.6020 134° Southeast 466 536 35,000  Level FlightAware ADS-B
Tue 08:09:47 PM 35.0170 -0.5300 135° Southeast 466 536 35,000  Level FlightAware ADS-B
Tue 08:10:47 PM 34.9320 -0.4230 134° Southeast 466 536 35,000  Level FlightAware ADS-B
Tue 08:11:42 PM 34.8540 -0.3250 134° Southeast 467 537 35,000  Level FlightAware ADS-B
Tue 08:12:22 PM 34.8030 -0.2610 134° Southeast 467 537 35,000  Level FlightAware ADS-B
Tue 08:13:02 PM 34.8440 -0.3120 314° West 470 541 35,000  Level FlightAware ADS-B
Tue 08:13:52 PM 34.7800 -0.2310 134° Southeast 470 541 35,000  Level FlightAware ADS-B
Tue 08:14:32 PM 34.7280 -0.1660 134° Southeast 470 541 35,000  Level FlightAware ADS-B
Tue 08:15:12 PM 34.6770 -0.1020 134° Southeast 470 541 35,000  Level FlightAware ADS-B
Tue 08:16:02 PM 34.6130 -0.0210 134° Southeast 470 541 35,000  Level FlightAware ADS-B
Tue 08:16:42 PM 34.5610 0.0440 134° Southeast 470 541 35,000  Level FlightAware ADS-B
Tue 08:17:22 PM 34.5100 0.1080 134° Southeast 470 541 35,000  Level FlightAware ADS-B
Tue 08:18:02 PM 34.4590 0.1730 134° Southeast 470 541 35,000  Level FlightAware ADS-B
Tue 08:18:42 PM 34.4070 0.2370 135° Southeast 470 541 35,000  Level FlightAware ADS-B
Tue 08:19:32 PM 34.3430 0.3180 134° Southeast 470 541 35,000  Level FlightAware ADS-B
Tue 08:20:12 PM 34.2920 0.3820 134° Southeast 470 541 35,000  Level FlightAware ADS-B
Tue 08:20:52 PM 34.2400 0.4470 134° Southeast 470 541 35,000  Level FlightAware ADS-B
Tue 08:21:32 PM 34.1890 0.5110 134° Southeast 470 541 35,000  Level FlightAware ADS-B
Tue 08:22:12 PM 34.1380 0.5750 134° Southeast 470 541 35,000  Level FlightAware ADS-B
Tue 08:24:00 PM 33.9379 0.6531 162° South  Level Estimated
Tue 08:25:00 PM 33.8267 0.6963 162° South  Level Estimated
Tue 08:26:00 PM 33.7155 0.7394 162° South  Level Estimated
Tue 08:27:00 PM 33.6043 0.7825 162° South  Level Estimated
Tue 08:28:00 PM 33.4931 0.8253 162° South  Level Estimated
Tue 08:29:00 PM 33.3819 0.8681 162° South  Level Estimated
Tue 08:30:00 PM 33.2706 0.9108 162° South  Level Estimated
Tue 08:31:00 PM 33.1593 0.9534 162° South  Level Estimated
Tue 08:32:00 PM 33.0480 0.9958 162° South  Level Estimated
Tue 08:33:00 PM 32.9367 1.0382 162° South  Level Estimated
Tue 08:34:00 PM 32.8254 1.0804 162° South  Level Estimated
Tue 08:35:00 PM 32.7141 1.1226 162° South  Level Estimated
Tue 08:36:00 PM 32.6027 1.1646 162° South  Level Estimated
Tue 08:37:00 PM 32.4914 1.2065 162° South  Level Estimated
Tue 08:38:00 PM 32.3800 1.2483 162° South  Level Estimated
Tue 08:39:00 PM 32.2686 1.2901 162° South  Level Estimated
Tue 08:40:00 PM 32.1572 1.3317 162° South  Level Estimated
Tue 08:41:00 PM 32.0458 1.3732 162° South  Level Estimated
Tue 08:42:00 PM 31.9344 1.4146 162° South  Level Estimated
Tue 08:43:00 PM 31.8230 1.4559 163° South  Level Estimated
Tue 08:44:00 PM 31.7115 1.4971 163° South  Level Estimated
Tue 08:45:00 PM 31.6000 1.5383 163° South  Level Estimated
Tue 08:46:00 PM 31.4886 1.5793 163° South  Level Estimated
Tue 08:47:00 PM 31.3771 1.6202 163° South  Level Estimated
Tue 08:48:00 PM 31.2656 1.6610 163° South  Level Estimated
Tue 08:49:00 PM 31.1541 1.7018 163° South  Level Estimated
Tue 08:50:00 PM 31.0425 1.7424 163° South  Level Estimated
Tue 08:51:00 PM 30.9310 1.7829 163° South  Level Estimated
Tue 08:52:00 PM 30.8194 1.8234 163° South  Level Estimated
Tue 08:53:00 PM 30.7078 1.8637 163° South  Level Estimated
Tue 08:54:00 PM 30.5963 1.9040 163° South  Level Estimated
Tue 08:55:00 PM 30.4847 1.9441 163° South  Level Estimated
Tue 08:56:00 PM 30.3731 1.9842 163° South  Level Estimated
Tue 08:57:00 PM 30.2615 2.0242 163° South  Level Estimated
Tue 08:58:00 PM 30.1498 2.0641 163° South  Level Estimated
Tue 08:59:00 PM 30.0382 2.1039 163° South  Level Estimated
Tue 09:00:00 PM 29.9265 2.1436 163° South  Level Estimated
Tue 09:01:00 PM 29.8149 2.1832 163° South  Level Estimated
Tue 09:02:00 PM 29.7032 2.2227 163° South  Level Estimated
Tue 09:03:00 PM 29.5915 2.2622 163° South  Level Estimated
Tue 09:04:00 PM 29.4798 2.3015 163° South  Level Estimated
Tue 09:05:00 PM 29.3681 2.3408 163° South  Level Estimated
Tue 09:06:00 PM 29.2564 2.3800 163° South  Level Estimated
Tue 09:07:00 PM 29.1446 2.4191 163° South  Level Estimated
Tue 09:08:00 PM 29.0329 2.4581 163° South  Level Estimated
Tue 09:09:00 PM 28.9211 2.4970 163° South  Level Estimated
Tue 09:10:00 PM 28.8094 2.5359 163° South  Level Estimated
Tue 09:11:00 PM 28.6976 2.5746 163° South  Level Estimated
Tue 09:12:00 PM 28.5858 2.6133 163° South  Level Estimated
Tue 09:13:00 PM 28.4740 2.6519 163° South  Level Estimated
Tue 09:14:00 PM 28.3622 2.6904 163° South  Level Estimated
Tue 09:15:00 PM 28.2504 2.7289 163° South  Level Estimated
Tue 09:16:00 PM 28.1385 2.7672 163° South  Level Estimated
Tue 09:17:00 PM 28.0267 2.8055 163° South  Level Estimated
Tue 09:18:00 PM 27.9148 2.8437 163° South  Level Estimated
Tue 09:19:00 PM 27.8030 2.8818 163° South  Level Estimated
Tue 09:20:00 PM 27.6911 2.9198 163° South  Level Estimated
Tue 09:21:00 PM 27.5792 2.9578 163° South  Level Estimated
Tue 09:22:00 PM 27.4673 2.9957 163° South  Level Estimated
Tue 09:23:00 PM 27.3554 3.0335 163° South  Level Estimated
Tue 09:24:00 PM 27.2435 3.0712 163° South  Level Estimated
Tue 09:25:00 PM 27.1315 3.1089 163° South  Level Estimated
Tue 09:26:00 PM 27.0196 3.1465 163° South  Level Estimated
Tue 09:27:00 PM 26.9076 3.1839 163° South  Level Estimated
Tue 09:28:00 PM 26.7957 3.2214 163° South  Level Estimated
Tue 09:29:00 PM 26.6837 3.2587 163° South  Level Estimated
Tue 09:30:00 PM 26.5717 3.2960 163° South  Level Estimated
Tue 09:31:00 PM 26.4597 3.3332 163° South  Level Estimated
Tue 09:32:00 PM 26.3477 3.3704 163° South  Level Estimated
Tue 09:33:00 PM 26.2357 3.4074 163° South  Level Estimated
Tue 09:34:00 PM 26.1237 3.4444 163° South  Level Estimated
Tue 09:35:00 PM 26.0117 3.4813 163° South  Level Estimated
Tue 09:36:00 PM 25.8997 3.5182 164° South  Level Estimated
Tue 09:37:00 PM 25.7876 3.5550 164° South  Level Estimated
Tue 09:38:00 PM 25.6756 3.5917 164° South  Level Estimated
Tue 09:39:00 PM 25.5635 3.6283 164° South  Level Estimated
Tue 09:40:00 PM 25.4515 3.6649 164° South  Level Estimated
Tue 09:41:00 PM 25.3394 3.7014 164° South  Level Estimated
Tue 09:42:00 PM 25.2273 3.7378 164° South  Level Estimated
Tue 09:43:00 PM 25.1152 3.7742 164° South  Level Estimated
Tue 09:44:00 PM 25.0031 3.8105 164° South  Level Estimated
Tue 09:45:00 PM 24.8909 3.8468 164° South  Level Estimated
Tue 09:46:00 PM 24.7788 3.8829 164° South  Level Estimated
Tue 09:47:00 PM 24.6667 3.9190 164° South  Level Estimated
Tue 09:48:00 PM 24.5546 3.9551 164° South  Level Estimated
Tue 09:49:00 PM 24.4424 3.9911 164° South  Level Estimated
Tue 09:50:00 PM 24.3302 4.0270 164° South  Level Estimated
Tue 09:51:00 PM 24.2181 4.0628 164° South  Level Estimated
Tue 09:52:00 PM 24.1059 4.0986 164° South  Level Estimated
Tue 09:53:00 PM 23.9937 4.1344 164° South  Level Estimated
Tue 09:54:00 PM 23.8815 4.1700 164° South  Level Estimated
Tue 09:55:00 PM 23.7693 4.2056 164° South  Level Estimated
Tue 09:56:00 PM 23.6571 4.2412 164° South  Level Estimated
Tue 09:57:00 PM 23.5449 4.2766 164° South  Level Estimated
Tue 09:58:00 PM 23.4327 4.3121 164° South  Level Estimated
Tue 09:59:00 PM 23.3204 4.3474 164° South  Level Estimated
Tue 10:00:00 PM 23.2082 4.3827 164° South  Level Estimated
Tue 10:01:00 PM 23.0960 4.4180 164° South  Level Estimated
Tue 10:02:00 PM 22.9837 4.4531 164° South  Level Estimated
Tue 10:03:00 PM 22.8714 4.4883 164° South  Level Estimated
Tue 10:04:00 PM 22.7592 4.5233 164° South  Level Estimated
Tue 10:05:00 PM 22.6469 4.5583 164° South  Level Estimated
Tue 10:06:00 PM 22.5346 4.5933 164° South  Level Estimated
Tue 10:07:00 PM 22.4223 4.6282 164° South  Level Estimated
Tue 10:08:00 PM 22.3100 4.6630 164° South  Level Estimated
Tue 10:09:00 PM 22.1977 4.6978 164° South  Level Estimated
Tue 10:10:00 PM 22.0854 4.7325 164° South  Level Estimated
Tue 10:11:00 PM 21.9731 4.7672 164° South  Level Estimated
Tue 10:12:00 PM 21.8607 4.8018 164° South  Level Estimated
Tue 10:13:00 PM 21.7484 4.8364 164° South  Level Estimated
Tue 10:14:00 PM 21.6360 4.8709 164° South  Level Estimated
Tue 10:15:00 PM 21.5237 4.9053 164° South  Level Estimated
Tue 10:16:00 PM 21.4113 4.9397 164° South  Level Estimated
Tue 10:17:00 PM 21.2990 4.9741 164° South  Level Estimated
Tue 10:18:00 PM 21.1866 5.0084 164° South  Level Estimated
Tue 10:19:00 PM 21.0742 5.0426 164° South  Level Estimated
Tue 10:20:00 PM 20.9618 5.0768 164° South  Level Estimated
Tue 10:21:00 PM 20.8494 5.1109 164° South  Level Estimated
Tue 10:22:00 PM 20.7370 5.1450 164° South  Level Estimated
Tue 10:23:00 PM 20.6246 5.1791 164° South  Level Estimated
Tue 10:24:00 PM 20.5122 5.2131 164° South  Level Estimated
Tue 10:25:00 PM 20.3998 5.2470 164° South  Level Estimated
Tue 10:26:00 PM 20.2874 5.2809 164° South  Level Estimated
Tue 10:27:00 PM 20.1749 5.3147 164° South  Level Estimated
Tue 10:28:00 PM 20.0625 5.3485 164° South  Level Estimated
Tue 10:29:00 PM 19.9500 5.3823 164° South  Level Estimated
Tue 10:30:00 PM 19.8376 5.4160 164° South  Level Estimated
Tue 10:31:00 PM 19.7251 5.4496 164° South  Level Estimated
Tue 10:32:00 PM 19.6127 5.4832 164° South  Level Estimated
Tue 10:33:00 PM 19.5002 5.5168 164° South  Level Estimated
Tue 10:34:00 PM 19.3877 5.5503 164° South  Level Estimated
Tue 10:35:00 PM 19.2752 5.5837 164° South  Level Estimated
Tue 10:36:00 PM 19.1627 5.6171 164° South  Level Estimated
Tue 10:37:00 PM 19.0502 5.6505 164° South  Level Estimated
Tue 10:38:00 PM 18.9377 5.6838 164° South  Level Estimated
Tue 10:39:00 PM 18.8252 5.7171 164° South  Level Estimated
Tue 10:40:00 PM 18.7127 5.7503 164° South  Level Estimated
Tue 10:41:00 PM 18.6002 5.7835 164° South  Level Estimated
Tue 10:42:00 PM 18.4877 5.8167 164° South  Level Estimated
Tue 10:43:00 PM 18.3751 5.8498 164° South  Level Estimated
Tue 10:44:00 PM 18.2626 5.8828 164° South  Level Estimated
Tue 10:45:00 PM 18.1501 5.9159 164° South  Level Estimated
Tue 10:46:00 PM 18.0375 5.9488 164° South  Level Estimated
Tue 10:47:00 PM 17.9250 5.9818 164° South  Level Estimated
Tue 10:48:00 PM 17.8124 6.0146 164° South  Level Estimated
Tue 10:49:00 PM 17.6998 6.0475 164° South  Level Estimated
Tue 10:50:00 PM 17.5873 6.0803 164° South  Level Estimated
Tue 10:51:00 PM 17.4747 6.1131 164° South  Level Estimated
Tue 10:52:00 PM 17.3621 6.1458 164° South  Level Estimated
Tue 10:53:00 PM 17.2495 6.1785 165° South  Level Estimated
Tue 10:54:00 PM 17.1369 6.2112 165° South  Level Estimated
Tue 10:55:00 PM 17.0243 6.2438 165° South  Level Estimated
Tue 10:56:00 PM 16.9117 6.2763 165° South  Level Estimated
Tue 10:57:00 PM 16.7991 6.3089 165° South  Level Estimated
Tue 10:58:00 PM 16.6865 6.3414 165° South  Level Estimated
Tue 10:59:00 PM 16.5739 6.3738 165° South  Level Estimated
Tue 11:00:00 PM 16.4613 6.4062 165° South  Level Estimated
Tue 11:01:00 PM 16.3486 6.4386 165° South  Level Estimated
Tue 11:02:00 PM 16.2360 6.4709 165° South  Level Estimated
Tue 11:03:00 PM 16.1234 6.5032 165° South  Level Estimated
Tue 11:04:00 PM 16.0107 6.5355 165° South  Level Estimated
Tue 11:05:00 PM 15.8981 6.5677 165° South  Level Estimated
Tue 11:06:00 PM 15.7854 6.5999 165° South  Level Estimated
Tue 11:07:00 PM 15.6728 6.6321 165° South  Level Estimated
Tue 11:08:00 PM 15.5601 6.6642 165° South  Level Estimated
Tue 11:09:00 PM 15.4474 6.6963 165° South  Level Estimated
Tue 11:10:00 PM 15.3348 6.7283 165° South  Level Estimated
Tue 11:11:00 PM 15.2221 6.7604 165° South  Level Estimated
Tue 11:12:00 PM 15.1094 6.7923 165° South  Level Estimated
Tue 11:13:00 PM 14.9967 6.8243 165° South  Level Estimated
Tue 11:14:00 PM 14.8841 6.8562 165° South  Level Estimated
Tue 11:15:00 PM 14.7714 6.8881 165° South  Level Estimated
Tue 11:16:00 PM 14.6587 6.9199 165° South  Level Estimated
Tue 11:17:00 PM 14.5460 6.9517 165° South  Level Estimated
Tue 11:18:00 PM 14.4333 6.9835 165° South  Level Estimated
Tue 11:19:00 PM 14.3205 7.0153 165° South  Level Estimated
Tue 11:20:00 PM 14.2078 7.0470 165° South  Level Estimated
Tue 11:21:00 PM 14.0951 7.0787 165° South  Level Estimated
Tue 11:22:00 PM 13.9824 7.1103 165° South  Level Estimated
Tue 11:23:00 PM 13.8697 7.1420 165° South  Level Estimated
Tue 11:24:00 PM 13.7569 7.1735 165° South  Level Estimated
Tue 11:25:00 PM 13.6442 7.2051 165° South  Level Estimated
Tue 11:26:00 PM 13.5315 7.2366 165° South  Level Estimated
Tue 11:27:00 PM 13.4187 7.2681 165° South  Level Estimated
Tue 11:28:00 PM 13.3060 7.2996 165° South  Level Estimated
Tue 11:29:00 PM 13.1932 7.3310 165° South  Level Estimated
Tue 11:30:00 PM 13.0805 7.3625 165° South  Level Estimated
Tue 11:31:00 PM 12.9677 7.3938 165° South  Level Estimated
Tue 11:32:00 PM 12.8549 7.4252 165° South  Level Estimated
Tue 11:33:00 PM 12.7422 7.4565 165° South  Level Estimated
Tue 11:34:00 PM 12.6294 7.4878 165° South  Level Estimated
Tue 11:35:00 PM 12.5166 7.5191 165° South  Level Estimated
Tue 11:36:00 PM 12.4039 7.5504 165° South  Level Estimated
Tue 11:37:00 PM 12.2911 7.5816 165° South  Level Estimated
Tue 11:38:00 PM 12.1783 7.6128 165° South  Level Estimated
Tue 11:39:00 PM 12.0655 7.6439 165° South  Level Estimated
Tue 11:40:00 PM 11.9527 7.6751 165° South  Level Estimated
Tue 11:41:00 PM 11.8399 7.7062 165° South  Level Estimated
Tue 11:42:00 PM 11.7271 7.7373 165° South  Level Estimated
Tue 11:43:00 PM 11.6143 7.7684 165° South  Level Estimated
Tue 11:44:00 PM 11.5015 7.7994 165° South  Level Estimated
Tue 11:45:00 PM 11.3887 7.8304 165° South  Level Estimated
Tue 11:46:00 PM 11.2759 7.8614 165° South  Level Estimated
Tue 11:47:00 PM 11.1631 7.8924 165° South  Level Estimated
Tue 11:48:00 PM 11.0503 7.9233 165° South  Level Estimated
Tue 11:49:00 PM 10.9375 7.9542 165° South  Level Estimated
Tue 11:50:00 PM 10.8246 7.9851 165° South  Level Estimated
Tue 11:51:00 PM 10.7118 8.0160 165° South  Level Estimated
Tue 11:52:00 PM 10.5990 8.0468 165° South  Level Estimated
Tue 11:53:00 PM 10.4861 8.0777 165° South  Level Estimated
Tue 11:54:00 PM 10.3733 8.1084 165° South  Level Estimated
Tue 11:55:00 PM 10.2605 8.1392 165° South  Level Estimated
Tue 11:56:00 PM 10.1476 8.1700 165° South  Level Estimated
Tue 11:57:00 PM 10.0348 8.2007 165° South  Level Estimated
Tue 11:58:00 PM 9.9219 8.2314 165° South  Level Estimated
Tue 11:59:00 PM 9.8091 8.2621 165° South  Level Estimated
Wed 12:00:00 AM 9.6962 8.2928 165° South  Level Estimated
Wed 12:01:00 AM 9.5834 8.3235 165° South  Level Estimated
Wed 12:02:00 AM 9.4705 8.3541 165° South  Level Estimated
Wed 12:03:00 AM 9.3577 8.3847 165° South  Level Estimated
Wed 12:04:00 AM 9.2448 8.4153 165° South  Level Estimated
Wed 12:05:00 AM 9.1319 8.4459 165° South  Level Estimated
Wed 12:06:00 AM 9.0191 8.4764 165° South  Level Estimated
Wed 12:07:00 AM 8.9062 8.5069 165° South  Level Estimated
Wed 12:08:00 AM 8.7933 8.5374 165° South  Level Estimated
Wed 12:09:00 AM 8.6804 8.5680 165° South  Level Estimated
Wed 12:10:00 AM 8.5676 8.5984 165° South  Level Estimated
Wed 12:11:00 AM 8.4547 8.6289 165° South  Level Estimated
Wed 12:12:00 AM 8.3418 8.6593 165° South  Level Estimated
Wed 12:13:00 AM 8.2289 8.6897 165° South  Level Estimated
Wed 12:14:00 AM 8.1160 8.7202 165° South  Level Estimated
Wed 12:15:00 AM 8.0031 8.7506 165° South  Level Estimated
Wed 12:16:00 AM 7.8902 8.7809 165° South  Level Estimated
Wed 12:17:00 AM 7.7773 8.8113 165° South  Level Estimated
Wed 12:18:00 AM 7.6645 8.8416 165° South  Level Estimated
Wed 12:19:00 AM 7.5515 8.8719 165° South  Level Estimated
Wed 12:20:00 AM 7.4387 8.9023 165° South  Level Estimated
Wed 12:21:00 AM 7.3257 8.9325 165° South  Level Estimated
Wed 12:22:00 AM 7.2129 8.9628 165° South  Level Estimated
Wed 12:23:00 AM 7.0999 8.9931 165° South  Level Estimated
Wed 12:24:00 AM 6.9870 9.0233 165° South  Level Estimated
Wed 12:25:00 AM 6.8741 9.0536 165° South  Level Estimated
Wed 12:26:00 AM 6.7612 9.0838 165° South  Level Estimated
Wed 12:27:00 AM 6.6483 9.1140 165° South  Level Estimated
Wed 12:28:00 AM 6.5354 9.1442 165° South  Level Estimated
Wed 12:29:00 AM 6.4225 9.1743 165° South  Level Estimated
Wed 12:30:00 AM 6.3095 9.2045 165° South  Level Estimated
Wed 12:31:00 AM 6.1966 9.2347 165° South  Level Estimated
Wed 12:32:00 AM 6.0837 9.2648 165° South  Level Estimated
Wed 12:33:00 AM 5.9708 9.2949 165° South  Level Estimated
Wed 12:34:00 AM 5.8579 9.3250 165° South  Level Estimated
Wed 12:35:00 AM 5.7449 9.3551 165° South  Level Estimated
Wed 12:36:00 AM 5.6320 9.3852 165° South  Level Estimated
Wed 12:37:00 AM 5.5191 9.4153 165° South  Level Estimated
Wed 12:38:00 AM 5.4061 9.4454 165° South  Level Estimated
Wed 12:39:00 AM 5.2932 9.4754 165° South  Level Estimated
Wed 12:40:00 AM 5.1803 9.5055 165° South  Level Estimated
Wed 12:41:00 AM 5.0673 9.5355 165° South  Level Estimated
Wed 12:42:00 AM 4.9544 9.5655 165° South  Level Estimated
Wed 12:43:00 AM 4.8414 9.5955 165° South  Level Estimated
Wed 12:44:00 AM 4.7285 9.6255 165° South  Level Estimated
Wed 12:45:00 AM 4.6156 9.6555 165° South  Level Estimated
Wed 12:46:00 AM 4.5026 9.6855 165° South  Level Estimated
Wed 12:47:00 AM 4.3897 9.7155 165° South  Level Estimated
Wed 12:48:00 AM 4.2767 9.7454 165° South  Level Estimated
Wed 12:49:00 AM 4.1638 9.7754 165° South  Level Estimated
Wed 12:50:00 AM 4.0508 9.8053 165° South  Level Estimated
Wed 12:51:00 AM 3.9379 9.8353 165° South  Level Estimated
Wed 12:52:00 AM 3.8249 9.8652 165° South  Level Estimated
Wed 12:53:00 AM 3.7120 9.8951 165° South  Level Estimated
Wed 12:54:00 AM 3.5990 9.9250 165° South  Level Estimated
Wed 12:55:00 AM 3.4861 9.9550 165° South  Level Estimated
Wed 12:56:00 AM 3.3731 9.9848 165° South  Level Estimated
Wed 12:57:00 AM 3.2602 10.0147 165° South  Level Estimated
Wed 12:58:00 AM 3.1472 10.0446 165° South  Level Estimated
Wed 12:59:00 AM 3.0343 10.0745 165° South  Level Estimated
Wed 01:00:00 AM 2.9213 10.1044 165° South  Level Estimated
Wed 01:01:00 AM 2.8083 10.1342 165° South  Level Estimated
Wed 01:02:00 AM 2.6954 10.1641 165° South  Level Estimated
Wed 01:03:00 AM 2.5824 10.1940 165° South  Level Estimated
Wed 01:04:00 AM 2.4694 10.2238 165° South  Level Estimated
Wed 01:05:00 AM 2.3565 10.2537 165° South  Level Estimated
Wed 01:06:00 AM 2.2435 10.2835 165° South  Level Estimated
Wed 01:07:00 AM 2.1306 10.3133 165° South  Level Estimated
Wed 01:08:00 AM 2.0176 10.3432 165° South  Level Estimated
Wed 01:09:00 AM 1.9046 10.3730 165° South  Level Estimated
Wed 01:10:00 AM 1.7917 10.4028 165° South  Level Estimated
Wed 01:11:00 AM 1.6787 10.4326 165° South  Level Estimated
Wed 01:12:00 AM 1.5658 10.4625 165° South  Level Estimated
Wed 01:13:00 AM 1.4528 10.4923 165° South  Level Estimated
Wed 01:14:00 AM 1.3398 10.5221 165° South  Level Estimated
Wed 01:15:00 AM 1.2269 10.5519 165° South  Level Estimated
Wed 01:16:00 AM 1.1139 10.5817 165° South  Level Estimated
Wed 01:17:00 AM 1.0009 10.6115 165° South  Level Estimated
Wed 01:18:00 AM 0.8879 10.6413 165° South  Level Estimated
Wed 01:19:00 AM 0.7750 10.6711 165° South  Level Estimated
Wed 01:20:00 AM 0.6620 10.7009 165° South  Level Estimated
Wed 01:21:00 AM 0.5490 10.7307 165° South  Level Estimated
Wed 01:22:00 AM 0.4361 10.7605 165° South  Level Estimated
Wed 01:23:00 AM 0.3231 10.7903 165° South  Level Estimated
Wed 01:24:00 AM 0.2101 10.8201 165° South  Level Estimated
Wed 01:25:00 AM 0.0971 10.8499 165° South  Level Estimated
Wed 01:26:00 AM -0.0158 10.8797 165° South  Level Estimated
Wed 01:27:00 AM -0.1288 10.9095 165° South  Level Estimated
Wed 01:28:00 AM -0.2418 10.9392 165° South  Level Estimated
Wed 01:29:00 AM -0.3547 10.9690 165° South  Level Estimated
Wed 01:30:00 AM -0.4677 10.9988 165° South  Level Estimated
Wed 01:31:00 AM -0.5807 11.0286 165° South  Level Estimated
Wed 01:32:00 AM -0.6936 11.0584 165° South  Level Estimated
Wed 01:33:00 AM -0.8066 11.0882 165° South  Level Estimated
Wed 01:34:00 AM -0.9196 11.1180 165° South  Level Estimated
Wed 01:35:00 AM -1.0325 11.1478 165° South  Level Estimated
Wed 01:36:00 AM -1.1455 11.1776 165° South  Level Estimated
Wed 01:37:00 AM -1.2585 11.2074 165° South  Level Estimated
Wed 01:38:00 AM -1.3715 11.2373 165° South  Level Estimated
Wed 01:39:00 AM -1.4844 11.2671 165° South  Level Estimated
Wed 01:40:00 AM -1.5974 11.2969 165° South  Level Estimated
Wed 01:41:00 AM -1.7104 11.3267 165° South  Level Estimated
Wed 01:42:00 AM -1.8233 11.3565 165° South  Level Estimated
Wed 01:43:00 AM -1.9363 11.3863 165° South  Level Estimated
Wed 01:44:00 AM -2.0492 11.4162 165° South  Level Estimated
Wed 01:45:00 AM -2.1622 11.4460 165° South  Level Estimated
Wed 01:46:00 AM -2.2752 11.4759 165° South  Level Estimated
Wed 01:47:00 AM -2.3881 11.5057 165° South  Level Estimated
Wed 01:48:00 AM -2.5011 11.5355 165° South  Level Estimated
Wed 01:49:00 AM -2.6140 11.5654 165° South  Level Estimated
Wed 01:50:00 AM -2.7270 11.5953 165° South  Level Estimated
Wed 01:51:00 AM -2.8400 11.6251 165° South  Level Estimated
Wed 01:52:00 AM -2.9529 11.6550 165° South  Level Estimated
Wed 01:53:00 AM -3.0659 11.6849 165° South  Level Estimated
Wed 01:54:00 AM -3.1788 11.7147 165° South  Level Estimated
Wed 01:55:00 AM -3.2918 11.7446 165° South  Level Estimated
Wed 01:56:00 AM -3.4048 11.7745 165° South  Level Estimated
Wed 01:57:00 AM -3.5177 11.8044 165° South  Level Estimated
Wed 01:58:00 AM -3.6307 11.8343 165° South  Level Estimated
Wed 01:59:00 AM -3.7436 11.8643 165° South  Level Estimated
Wed 02:00:00 AM -3.8566 11.8942 165° South  Level Estimated
Wed 02:01:00 AM -3.9695 11.9241 165° South  Level Estimated
Wed 02:02:00 AM -4.0825 11.9541 165° South  Level Estimated
Wed 02:03:00 AM -4.1954 11.9840 165° South  Level Estimated
Wed 02:04:00 AM -4.3084 12.0140 165° South  Level Estimated
Wed 02:05:00 AM -4.4213 12.0439 165° South  Level Estimated
Wed 02:06:00 AM -4.5342 12.0739 165° South  Level Estimated
Wed 02:07:00 AM -4.6472 12.1039 165° South  Level Estimated
Wed 02:08:00 AM -4.7601 12.1339 165° South  Level Estimated
Wed 02:09:00 AM -4.8731 12.1639 165° South  Level Estimated
Wed 02:10:00 AM -4.9860 12.1939 165° South  Level Estimated
Wed 02:11:00 AM -5.0989 12.2239 165° South  Level Estimated
Wed 02:12:00 AM -5.2119 12.2540 165° South  Level Estimated
Wed 02:13:00 AM -5.3248 12.2840 165° South  Level Estimated
Wed 02:14:00 AM -5.4377 12.3141 165° South  Level Estimated
Wed 02:15:00 AM -5.5507 12.3441 165° South  Level Estimated
Wed 02:16:00 AM -5.6636 12.3742 165° South  Level Estimated
Wed 02:17:00 AM -5.7765 12.4043 165° South  Level Estimated
Wed 02:18:00 AM -5.8895 12.4344 165° South  Level Estimated
Wed 02:19:00 AM -6.0024 12.4645 165° South  Level Estimated
Wed 02:20:00 AM -6.1153 12.4947 165° South  Level Estimated
Wed 02:21:00 AM -6.2282 12.5248 165° South  Level Estimated
Wed 02:22:00 AM -6.3412 12.5550 165° South  Level Estimated
Wed 02:23:00 AM -6.4541 12.5851 165° South  Level Estimated
Wed 02:24:00 AM -6.5670 12.6153 165° South  Level Estimated
Wed 02:25:00 AM -6.6799 12.6455 165° South  Level Estimated
Wed 02:26:00 AM -6.7928 12.6757 165° South  Level Estimated
Wed 02:27:00 AM -6.9057 12.7059 165° South  Level Estimated
Wed 02:28:00 AM -7.0187 12.7362 165° South  Level Estimated
Wed 02:29:00 AM -7.1316 12.7664 165° South  Level Estimated
Wed 02:30:00 AM -7.2445 12.7967 165° South  Level Estimated
Wed 02:31:00 AM -7.3574 12.8270 165° South  Level Estimated
Wed 02:32:00 AM -7.4703 12.8573 165° South  Level Estimated
Wed 02:33:00 AM -7.5832 12.8876 165° South  Level Estimated
Wed 02:34:00 AM -7.6961 12.9179 165° South  Level Estimated
Wed 02:35:00 AM -7.8090 12.9483 165° South  Level Estimated
Wed 02:36:00 AM -7.9219 12.9786 165° South  Level Estimated
Wed 02:37:00 AM -8.0347 13.0090 165° South  Level Estimated
Wed 02:38:00 AM -8.1476 13.0394 165° South  Level Estimated
Wed 02:39:00 AM -8.2605 13.0698 165° South  Level Estimated
Wed 02:40:00 AM -8.3734 13.1002 165° South  Level Estimated
Wed 02:41:00 AM -8.4863 13.1307 165° South  Level Estimated
Wed 02:42:00 AM -8.5992 13.1611 165° South  Level Estimated

Login

Don't have an account? Register now (free) for customized features, flight alerts, and more!